»·PEaware :: N16RD KAVX-KSAN

N16RD :: KAVX-KSAN

FLIGHT INFORMATION

Flight Status: Arrived
Operator: Privately registered:
United States
More flights under this callsign
Pilot: Brett B. (12105)
Aircraft: CESSNA 182 SKYLANE
(C182)
More flights by this aircraft type
Origin: KAVX Catalina
United States
Destination: KSAN San Diego Intl-Lindbergh
United States
More flights between these airports :: More routes between these airports
Route: SXC V208 OCN V23 MZB
File this flight plan on PilotEdge
Remarks: I-8 Test
Altitude:
(Current/Filed)
7,000ft
Speed:
(Current/Filed)
115kts
Departed: 25-Oct-17 09:15 PM
Arrived: 25-Oct-17 10:04 PM
Distance/Time
Traveled:
73nm/0:48
Distance/Time
To Go:
Arrived

Flight Plot

Page will automatically refresh every two minutes.


Map Options




Map Legend


Flown Route
Filed Route
Departure Airport
Arrival Airport
Navaid (VOR, NDB)
Fix

Horizontal Profiles

Position Reports

Time Latitude Longitude Heading Altitude Ground
Speed
25-Oct-17 21:09 33.403579 -118.415739 144 1605ft 0kts
25-Oct-17 21:10 33.403579 -118.415739 144 1605ft 0kts
25-Oct-17 21:11 33.403579 -118.415739 144 1605ft 0kts
25-Oct-17 21:12 33.403579 -118.415739 144 1605ft 0kts
25-Oct-17 21:13 33.403579 -118.415739 144 1605ft 0kts
25-Oct-17 21:14 33.403579 -118.415739 144 1605ft 0kts
25-Oct-17 21:15 33.403579 -118.415739 144 1605ft 0kts
25-Oct-17 21:16 33.403776 -118.417024 275 1605ft 0kts
25-Oct-17 21:17 33.403428 -118.417755 234 1605ft 8kts
25-Oct-17 21:18 33.402247 -118.419768 283 1605ft 0kts
25-Oct-17 21:19 33.402247 -118.419771 283 1605ft 0kts
25-Oct-17 21:20 33.411893 -118.404580 50 1856ft 108kts
25-Oct-17 21:21 33.436261 -118.377608 10 2292ft 135kts
25-Oct-17 21:22 33.450888 -118.339556 102 2286ft 146kts
25-Oct-17 21:23 33.443724 -118.296099 102 2957ft 124kts
25-Oct-17 21:24 33.427984 -118.261051 125 3754ft 120kts
25-Oct-17 21:25 33.408980 -118.227610 124 4560ft 122kts
25-Oct-17 21:26 33.390269 -118.193532 123 5354ft 122kts
25-Oct-17 21:27 33.372305 -118.159556 122 6145ft 118kts
25-Oct-17 21:28 33.355390 -118.126297 121 6909ft 117kts
25-Oct-17 21:29 33.337057 -118.088276 116 7030ft 146kts
25-Oct-17 21:30 33.325737 -118.040514 100 7023ft 150kts
25-Oct-17 21:31 33.318678 -117.991448 99 7022ft 151kts
25-Oct-17 21:32 33.313243 -117.951205 99 7020ft 151kts
25-Oct-17 21:33 33.306562 -117.901468 98 7022ft 151kts
25-Oct-17 21:34 33.299885 -117.851854 99 7007ft 151kts
25-Oct-17 21:35 33.293157 -117.802017 99 7003ft 151kts
25-Oct-17 21:36 33.286437 -117.752395 99 7002ft 151kts
25-Oct-17 21:37 33.279697 -117.702768 99 7002ft 151kts
25-Oct-17 21:38 33.272920 -117.653019 99 7003ft 151kts
25-Oct-17 21:39 33.266151 -117.603484 99 7008ft 151kts
25-Oct-17 21:40 33.259329 -117.553709 99 6981ft 152kts
25-Oct-17 21:41 33.252486 -117.503914 99 6990ft 151kts
25-Oct-17 21:42 33.245661 -117.454355 99 6992ft 151kts
25-Oct-17 21:43 33.228520 -117.412828 159 7010ft 146kts
25-Oct-17 21:44 33.189899 -117.396390 162 6998ft 147kts
25-Oct-17 21:45 33.151188 -117.380125 162 6997ft 147kts
25-Oct-17 21:46 33.112362 -117.363801 162 6995ft 147kts
25-Oct-17 21:47 33.073649 -117.347536 162 6996ft 147kts
25-Oct-17 21:48 33.034973 -117.331300 162 6999ft 147kts
25-Oct-17 21:49 32.996230 -117.315053 162 6998ft 147kts
25-Oct-17 21:50 32.957592 -117.298863 162 6997ft 147kts
25-Oct-17 21:51 32.915697 -117.281368 162 6066ft 167kts
25-Oct-17 21:52 32.875323 -117.256377 159 5073ft 158kts
25-Oct-17 21:53 32.837083 -117.237641 158 5003ft 145kts
25-Oct-17 21:54 32.799282 -117.219555 160 5004ft 146kts
25-Oct-17 21:55 32.761175 -117.202930 163 5003ft 145kts
25-Oct-17 21:56 32.749684 -117.162697 83 5007ft 149kts
25-Oct-17 21:57 32.754284 -117.113363 83 5005ft 151kts
25-Oct-17 21:58 32.754428 -117.063531 103 5006ft 152kts
25-Oct-17 21:59 32.744956 -117.014271 103 5003ft 152kts
25-Oct-17 22:00 32.722097 -116.966781 123 4091ft 169kts
25-Oct-17 22:01 32.689295 -116.933195 170 3998ft 150kts
25-Oct-17 22:02 32.676840 -116.970160 283 3894ft 147kts
25-Oct-17 22:03 32.691336 -117.015479 284 3463ft 149kts
25-Oct-17 22:04 32.703270 -117.061138 286 2535ft 146kts
25-Oct-17 22:05 32.712639 -117.101856 286 1356ft 154kts
25-Oct-17 22:06 32.722925 -117.144717 284 587ft 82kts
25-Oct-17 22:07 32.727835 -117.166821 285 252ft 84kts
25-Oct-17 22:08 32.733965 -117.191264 284 18ft 48kts
25-Oct-17 22:09 32.735026 -117.198535 236 18ft 0kts
25-Oct-17 22:10 32.734662 -117.199115 232 18ft 22kts
25-Oct-17 22:11 32.734246 -117.200553 204 18ft 0kts
25-Oct-17 22:12 32.734246 -117.200553 204 18ft 0kts
25-Oct-17 22:13 32.734246 -117.200553 204 18ft 0kts
25-Oct-17 22:14 32.734246 -117.200553 204 18ft 0kts
25-Oct-17 22:15 32.734246 -117.200553 204 18ft 0kts
25-Oct-17 22:16 32.734246 -117.200553 204 18ft 0kts
25-Oct-17 22:17 32.734246 -117.200553 204 18ft 0kts

Navigation Log

Ident Type
Flight plan parsing failed, navigation log unavailable